Time;durP1;ratioP1;P1;durP2;ratioP2;P2;SDS_P1;SDS_P2;PMS_P1;PMS_P2;Temp;Humidity;BMP_temperature;BMP_pressure;BME280_temperature;BME280_humidity;BME280_pressure;Samples;Min_cycle;Max_cycle;Signal;HPM_P1;HPM_P2
2023/07/15 00:01:30;;;;;;;3.00;1.70;;;21.70;99.90;;;;;;4899049;29;20049;-80
2023/07/15 00:03:58;;;;;;;4.38;1.92;;;21.70;99.90;;;;;;4908226;29;20056;-80
2023/07/15 00:06:25;;;;;;;2.85;2.30;;;21.70;99.90;;;;;;4905030;29;20424;-81
2023/07/15 00:08:53;;;;;;;6.72;2.78;;;21.70;99.90;;;;;;4902930;29;20078;-81
2023/07/15 00:11:31;;;;;;;3.90;2.65;;;21.70;99.90;;;;;;4903084;29;20053;-80
2023/07/15 00:13:59;;;;;;;4.90;2.13;;;21.60;99.90;;;;;;4908956;29;20085;-81
2023/07/15 00:16:27;;;;;;;5.72;2.50;;;21.60;99.90;;;;;;4899620;29;20440;-80
2023/07/15 00:18:54;;;;;;;4.65;1.75;;;21.60;99.90;;;;;;4902398;29;20132;-79
2023/07/15 00:21:23;;;;;;;2.95;1.60;;;21.60;99.90;;;;;;4904425;29;20061;-79
2023/07/15 00:23:55;;;;;;;2.72;1.40;;;21.60;99.90;;;;;;4895073;29;20063;-79
2023/07/15 00:26:23;;;;;;;138.60;83.40;;;21.60;99.90;;;;;;4900732;29;20053;-79
2023/07/15 00:28:50;;;;;;;318.40;206.52;;;21.60;99.90;;;;;;4893544;29;20045;-80
2023/07/15 00:31:18;;;;;;;122.97;76.68;;;21.60;99.90;;;;;;4897713;29;20053;-79
2023/07/15 00:33:46;;;;;;;57.00;33.00;;;21.60;99.90;;;;;;4916329;29;20116;-80
2023/07/15 00:36:13;;;;;;;36.33;20.20;;;21.60;99.90;;;;;;4903462;29;20105;-79
2023/07/15 00:38:42;;;;;;;33.75;20.77;;;21.50;99.90;;;;;;4893759;29;20120;-80
2023/07/15 00:41:18;;;;;;;20.13;11.57;;;21.50;99.90;;;;;;4899721;29;20049;-80
2023/07/15 00:46:49;;;;;;;11.65;6.82;;;21.50;99.90;;;;;;4897961;29;20108;-80
2023/07/15 00:49:22;;;;;;;7.90;5.15;;;21.50;99.90;;;;;;4902692;29;20057;-80
2023/07/15 00:52:11;;;;;;;24.30;15.80;;;21.50;99.90;;;;;;4901204;29;20053;-79
2023/07/15 00:54:45;;;;;;;11.43;6.78;;;21.50;99.90;;;;;;4894147;29;20049;-79
2023/07/15 00:57:15;;;;;;;15.23;9.30;;;21.40;99.90;;;;;;4921597;29;20148;-79
2023/07/15 00:59:44;;;;;;;6.93;4.22;;;21.40;99.90;;;;;;4892604;29;20056;-80
2023/07/15 01:02:12;;;;;;;7.50;4.90;;;21.50;99.90;;;;;;4898885;29;20045;-79
2023/07/15 01:04:39;;;;;;;7.30;4.55;;;21.40;99.90;;;;;;4900787;29;20076;-79
2023/07/15 01:07:07;;;;;;;7.70;4.38;;;21.40;99.90;;;;;;4902599;29;20160;-80
2023/07/15 01:09:34;;;;;;;4.25;3.33;;;21.40;99.90;;;;;;4894131;29;20049;-80
2023/07/15 01:12:01;;;;;;;5.38;3.17;;;21.40;99.90;;;;;;4899162;29;20432;-79
2023/07/15 01:14:31;;;;;;;4.35;2.92;;;21.40;99.90;;;;;;4891515;29;20085;-79
2023/07/15 01:16:57;;;;;;;5.32;3.05;;;21.40;99.90;;;;;;4899423;29;20058;-79
2023/07/15 01:19:24;;;;;;;4.88;1.92;;;21.40;99.90;;;;;;4901083;29;20101;-79
2023/07/15 01:21:52;;;;;;;3.95;2.15;;;21.40;99.90;;;;;;4897752;29;20078;-80
2023/07/15 01:24:21;;;;;;;3.90;2.00;;;21.40;99.90;;;;;;4891429;29;20114;-79
2023/07/15 01:26:53;;;;;;;2.95;2.13;;;21.50;99.90;;;;;;4898940;29;20117;-79
2023/07/15 01:29:20;;;;;;;9.25;6.68;;;21.40;99.90;;;;;;4907916;29;20466;-79
2023/07/15 01:31:47;;;;;;;5.97;3.40;;;21.40;99.90;;;;;;4899235;29;20052;-79
2023/07/15 01:34:14;;;;;;;2.85;2.05;;;21.30;99.90;;;;;;4903486;29;20527;-79
2023/07/15 01:36:41;;;;;;;3.50;2.60;;;21.30;99.90;;;;;;4915586;29;20057;-80
2023/07/15 01:39:09;;;;;;;3.42;2.15;;;21.30;99.90;;;;;;4894722;29;20049;-80
2023/07/15 01:41:36;;;;;;;4.00;2.38;;;21.30;99.90;;;;;;4899395;29;20057;-79
2023/07/15 01:44:04;;;;;;;5.47;2.25;;;21.30;99.90;;;;;;4896602;29;20049;-79
2023/07/15 01:46:33;;;;;;;3.00;2.25;;;21.30;99.90;;;;;;4907857;29;20049;-80
2023/07/15 01:49:02;;;;;;;3.70;1.70;;;21.30;99.90;;;;;;4899353;29;20076;-81
2023/07/15 01:51:30;;;;;;;4.63;3.05;;;21.30;99.90;;;;;;4919558;29;20056;-79
2023/07/15 01:53:57;;;;;;;3.92;2.53;;;21.20;99.90;;;;;;4898543;29;20049;-81
2023/07/15 01:56:23;;;;;;;4.97;2.67;;;21.30;99.90;;;;;;4898649;29;20062;-80
2023/07/15 01:58:50;;;;;;;3.97;2.25;;;21.20;99.90;;;;;;4911059;29;20152;-79
2023/07/15 02:01:16;;;;;;;6.90;3.42;;;21.30;99.90;;;;;;4903667;29;20048;-79
2023/07/15 02:03:44;;;;;;;2.20;1.80;;;21.30;99.90;;;;;;4900251;29;20060;-79
2023/07/15 02:06:12;;;;;;;4.88;2.47;;;21.30;99.90;;;;;;4901830;29;20072;-79
2023/07/15 02:08:40;;;;;;;30.08;18.80;;;21.30;99.90;;;;;;4891624;29;20497;-80
2023/07/15 02:11:07;;;;;;;74.45;43.95;;;21.30;99.90;;;;;;4899907;29;20056;-79
2023/07/15 02:13:33;;;;;;;85.47;59.90;;;21.20;99.90;;;;;;4899650;29;20049;-79
2023/07/15 02:16:00;;;;;;;63.80;43.05;;;21.20;99.90;;;;;;4894048;29;20172;-79
2023/07/15 02:18:27;;;;;;;37.22;26.55;;;21.20;99.90;;;;;;4909640;29;20117;-79
2023/07/15 02:20:53;;;;;;;33.05;23.73;;;21.20;99.90;;;;;;4898449;29;20108;-79
2023/07/15 02:23:21;;;;;;;35.90;24.77;;;21.20;99.90;;;;;;4890685;29;20513;-79
2023/07/15 02:25:49;;;;;;;19.63;13.50;;;21.20;99.90;;;;;;4897254;29;20056;-80
2023/07/15 02:28:15;;;;;;;15.90;11.13;;;21.20;99.90;;;;;;4908913;29;20077;-79
2023/07/15 02:30:42;;;;;;;20.33;11.90;;;21.10;99.90;;;;;;4890176;29;20471;-79
2023/07/15 02:33:09;;;;;;;13.25;9.13;;;21.20;99.90;;;;;;4902863;29;20063;-79
2023/07/15 02:35:40;;;;;;;10.25;7.35;;;21.10;99.90;;;;;;4898559;29;20053;-80
2023/07/15 02:38:07;;;;;;;8.15;5.22;;;21.10;99.90;;;;;;4890726;29;20056;-80
2023/07/15 02:40:33;;;;;;;8.77;6.68;;;21.10;99.90;;;;;;4912583;29;20060;-80
2023/07/15 02:43:00;;;;;;;7.78;5.13;;;21.00;99.90;;;;;;4897913;29;20055;-79
2023/07/15 02:45:27;;;;;;;9.15;3.42;;;21.00;99.90;;;;;;4901526;29;20104;-79
2023/07/15 02:47:54;;;;;;;3.85;1.85;;;21.00;99.90;;;;;;4895998;29;20109;-79
2023/07/15 02:50:21;;;;;;;3.85;2.78;;;21.00;99.90;;;;;;4897952;29;20136;-79
2023/07/15 02:52:48;;;;;;;4.03;2.45;;;21.00;99.90;;;;;;4890861;29;20053;-79
2023/07/15 02:55:14;;;;;;;6.15;2.53;;;20.90;99.90;;;;;;4893713;29;20052;-79
2023/07/15 02:57:41;;;;;;;5.40;2.65;;;20.90;99.90;;;;;;4896881;29;20523;-80
2023/07/15 03:00:10;;;;;;;4.38;2.15;;;20.90;99.90;;;;;;4902146;29;20079;-79
2023/07/15 03:02:37;;;;;;;1.92;1.60;;;20.90;99.90;;;;;;4896425;29;20049;-79
2023/07/15 03:05:06;;;;;;;3.67;2.10;;;20.80;99.90;;;;;;4902766;29;20478;-79
2023/07/15 03:07:34;;;;;;;2.83;1.70;;;20.80;99.90;;;;;;4909789;29;20057;-79
2023/07/15 03:10:01;;;;;;;7.05;2.42;;;20.80;99.90;;;;;;4897709;29;20044;-79
2023/07/15 03:12:28;;;;;;;3.22;2.10;;;20.80;99.90;;;;;;4901404;29;20108;-79
2023/07/15 03:14:55;;;;;;;10.65;4.45;;;20.80;99.90;;;;;;4910774;29;20108;-79
2023/07/15 03:17:22;;;;;;;5.85;3.33;;;20.80;99.90;;;;;;4895365;29;20049;-79
2023/07/15 03:19:49;;;;;;;6.78;3.40;;;20.80;99.90;;;;;;4916988;29;20060;-77
2023/07/15 03:22:15;;;;;;;7.45;3.10;;;20.80;99.90;;;;;;4896027;29;20053;-79
2023/07/15 03:24:42;;;;;;;4.97;2.70;;;20.70;99.90;;;;;;4895249;29;20513;-79
2023/07/15 03:27:09;;;;;;;4.45;2.50;;;20.70;99.90;;;;;;4903765;29;20048;-79
2023/07/15 03:29:36;;;;;;;4.53;1.92;;;20.70;99.90;;;;;;4906453;29;20060;-79
2023/07/15 03:32:03;;;;;;;3.47;2.20;;;20.70;99.90;;;;;;4898210;29;20079;-79
2023/07/15 03:34:30;;;;;;;2.42;1.88;;;20.70;99.90;;;;;;4901426;29;20057;-79
2023/07/15 03:36:56;;;;;;;2.75;1.80;;;20.70;99.90;;;;;;4896596;29;20109;-79
2023/07/15 03:39:23;;;;;;;5.00;1.73;;;20.70;99.90;;;;;;4893558;29;20537;-79
2023/07/15 03:41:50;;;;;;;2.97;1.88;;;20.70;99.90;;;;;;4904308;29;20136;-79
2023/07/15 03:44:17;;;;;;;3.28;2.30;;;20.70;99.90;;;;;;4904897;29;20049;-79
2023/07/15 03:46:43;;;;;;;4.88;2.28;;;20.60;99.90;;;;;;4896171;29;20505;-79
2023/07/15 03:49:10;;;;;;;5.03;2.08;;;20.50;99.90;;;;;;4898690;29;20715;-79
2023/07/15 03:51:37;;;;;;;6.47;2.20;;;20.60;99.90;;;;;;4898164;29;20052;-79
2023/07/15 03:54:05;;;;;;;4.70;2.17;;;20.60;99.90;;;;;;4899944;29;20053;-79
2023/07/15 03:56:33;;;;;;;3.15;1.88;;;20.60;99.90;;;;;;4903781;29;20173;-79
2023/07/15 03:58:59;;;;;;;3.75;2.20;;;20.60;99.90;;;;;;4908420;29;20077;-78
2023/07/15 04:01:26;;;;;;;3.10;1.80;;;20.50;99.90;;;;;;4898314;29;20117;-79
2023/07/15 04:03:53;;;;;;;4.22;1.92;;;20.60;99.90;;;;;;4896311;29;20085;-81
2023/07/15 04:06:20;;;;;;;3.15;2.33;;;20.60;99.90;;;;;;4898839;29;20056;-78
2023/07/15 04:08:49;;;;;;;3.47;2.15;;;20.60;99.90;;;;;;4893690;29;20045;-82
2023/07/15 04:11:17;;;;;;;3.35;2.10;;;20.60;99.90;;;;;;4901333;29;20041;-80
2023/07/15 04:13:44;;;;;;;2.72;1.83;;;20.60;99.90;;;;;;4903182;29;20044;-79
2023/07/15 04:16:10;;;;;;;3.53;1.80;;;20.60;99.90;;;;;;4894202;29;20049;-79
2023/07/15 04:18:37;;;;;;;4.95;1.85;;;20.70;99.90;;;;;;4895095;29;20140;-79
2023/07/15 04:21:04;;;;;;;5.97;2.20;;;20.60;99.90;;;;;;4899551;29;20045;-81
2023/07/15 04:23:31;;;;;;;3.78;1.88;;;20.70;99.90;;;;;;4892807;29;20052;-79
2023/07/15 04:25:58;;;;;;;2.97;1.80;;;20.70;99.90;;;;;;4902506;29;20059;-78
2023/07/15 04:28:25;;;;;;;5.40;1.77;;;20.70;99.90;;;;;;4906844;29;20045;-81
2023/07/15 04:30:52;;;;;;;2.17;1.80;;;20.70;99.90;;;;;;4909492;29;20040;-80
2023/07/15 04:33:18;;;;;;;3.65;2.33;;;20.70;99.90;;;;;;4901391;29;20053;-80
2023/07/15 04:35:45;;;;;;;5.00;2.10;;;20.80;99.90;;;;;;4901671;29;20496;-80
2023/07/15 04:38:12;;;;;;;4.75;1.70;;;20.90;99.90;;;;;;4893782;29;20061;-80
2023/07/15 04:40:39;;;;;;;2.20;1.80;;;20.80;99.90;;;;;;4902710;29;20052;-81
2023/07/15 04:43:05;;;;;;;2.70;1.75;;;20.90;99.90;;;;;;4905692;29;20120;-80
2023/07/15 04:45:33;;;;;;;3.67;2.13;;;20.90;99.90;;;;;;4897333;29;20287;-80
2023/07/15 04:47:59;;;;;;;3.75;2.08;;;20.90;99.90;;;;;;4893757;29;20049;-80
2023/07/15 04:50:26;;;;;;;3.40;1.60;;;20.90;99.90;;;;;;4901127;29;20051;-80
2023/07/15 04:52:53;;;;;;;3.95;1.38;;;21.00;99.90;;;;;;4895107;29;20045;-80
2023/07/15 04:55:21;;;;;;;3.78;2.20;;;21.10;99.90;;;;;;4893352;29;20049;-80
2023/07/15 04:57:48;;;;;;;5.43;2.10;;;21.10;99.90;;;;;;4898457;29;20135;-80
2023/07/15 05:00:16;;;;;;;2.85;1.85;;;21.20;99.90;;;;;;4898429;29;20073;-80
2023/07/15 05:02:43;;;;;;;4.47;2.22;;;21.40;99.90;;;;;;4892789;29;20081;-80
2023/07/15 05:05:10;;;;;;;6.25;2.30;;;21.50;99.90;;;;;;4914280;29;20052;-81
2023/07/15 05:07:38;;;;;;;2.92;1.65;;;21.70;99.90;;;;;;4895800;29;20100;-80
2023/07/15 05:10:24;;;;;;;2.42;2.08;;;21.90;99.90;;;;;;4892722;29;20068;-80
2023/07/15 05:12:51;;;;;;;2.30;1.88;;;22.10;99.90;;;;;;4898742;29;20056;-80
2023/07/15 05:15:17;;;;;;;4.05;1.77;;;22.20;99.90;;;;;;4913737;29;20081;-80
2023/07/15 05:17:44;;;;;;;5.43;2.10;;;22.40;99.90;;;;;;4892049;29;20049;-80
2023/07/15 05:20:15;;;;;;;4.20;1.77;;;22.50;99.90;;;;;;4899963;29;20059;-80
2023/07/15 05:22:41;;;;;;;5.93;1.92;;;22.70;99.90;;;;;;4896499;29;20045;-80
2023/07/15 05:25:09;;;;;;;3.40;1.90;;;22.80;99.90;;;;;;4890654;29;20057;-80
2023/07/15 05:27:40;;;;;;;2.58;1.67;;;23.00;99.90;;;;;;4894892;29;20346;-81
2023/07/15 05:30:08;;;;;;;4.97;2.30;;;23.10;99.90;;;;;;4898250;29;20045;-79
2023/07/15 05:32:36;;;;;;;3.42;2.00;;;23.20;99.90;;;;;;4892481;29;20432;-80
2023/07/15 05:35:04;;;;;;;4.40;1.95;;;23.30;99.90;;;;;;4896978;29;20053;-80
2023/07/15 05:37:30;;;;;;;3.35;1.75;;;23.40;99.90;;;;;;4894497;29;20079;-79
2023/07/15 05:39:57;;;;;;;5.45;1.80;;;23.50;99.90;;;;;;4904771;29;20116;-80
2023/07/15 05:42:24;;;;;;;3.15;2.22;;;23.50;99.90;;;;;;4900150;29;20052;-80
2023/07/15 05:44:51;;;;;;;2.97;2.05;;;23.60;99.90;;;;;;4898136;29;20064;-80
2023/07/15 05:47:17;;;;;;;3.05;2.05;;;23.60;99.90;;;;;;4890591;29;20049;-80
2023/07/15 05:49:47;;;;;;;4.22;1.73;;;23.60;99.90;;;;;;4897099;29;20461;-80
2023/07/15 05:52:13;;;;;;;2.47;1.50;;;23.60;99.90;;;;;;4898102;29;20425;-79
2023/07/15 05:54:40;;;;;;;7.30;2.03;;;23.50;99.90;;;;;;4902270;29;20073;-80
2023/07/15 05:57:07;;;;;;;2.55;1.80;;;23.50;99.90;;;;;;4893600;29;20049;-79
2023/07/15 05:59:34;;;;;;;2.63;1.63;;;23.40;99.90;;;;;;4913733;29;20052;-80
2023/07/15 06:02:00;;;;;;;3.17;1.80;;;23.40;99.90;;;;;;4891912;29;20092;-80
2023/07/15 06:04:27;;;;;;;3.22;1.73;;;23.40;99.90;;;;;;4894993;29;20045;-80
2023/07/15 06:06:54;;;;;;;4.40;1.80;;;23.30;99.90;;;;;;4898561;29;20052;-80
2023/07/15 06:09:21;;;;;;;3.20;2.15;;;23.30;99.90;;;;;;4904234;29;20041;-80
2023/07/15 06:11:48;;;;;;;2.75;1.77;;;23.30;99.90;;;;;;4894993;29;20159;-81
2023/07/15 06:14:15;;;;;;;3.45;2.05;;;23.30;99.90;;;;;;4901083;29;20091;-81
2023/07/15 06:16:42;;;;;;;5.97;1.95;;;23.30;99.90;;;;;;4890758;29;20053;-81
2023/07/15 06:19:09;;;;;;;2.63;1.75;;;23.30;99.90;;;;;;4898378;29;20055;-80
2023/07/15 06:21:36;;;;;;;2.95;1.90;;;23.30;99.90;;;;;;4901416;29;20097;-79
2023/07/15 06:24:03;;;;;;;4.78;2.13;;;23.30;99.90;;;;;;4905159;29;20049;-81
2023/07/15 06:26:30;;;;;;;2.92;1.90;;;23.30;99.90;;;;;;4893826;29;20049;-81
2023/07/15 06:28:57;;;;;;;3.58;1.75;;;23.40;99.90;;;;;;4896647;29;20434;-82
2023/07/15 06:31:24;;;;;;;2.72;1.73;;;23.40;99.90;;;;;;4892853;29;20033;-80
2023/07/15 06:33:51;;;;;;;3.95;2.55;;;23.60;99.90;;;;;;4893631;29;20056;-80
2023/07/15 06:36:18;;;;;;;4.78;2.35;;;23.60;99.90;;;;;;4918579;29;20049;-80
2023/07/15 06:38:45;;;;;;;5.00;2.00;;;23.70;99.90;;;;;;4918102;29;20163;-79
2023/07/15 06:41:12;;;;;;;4.60;2.10;;;23.70;99.90;;;;;;4907155;29;20052;-80
2023/07/15 06:43:39;;;;;;;7.25;2.10;;;23.90;99.90;;;;;;4901566;29;20055;-81
2023/07/15 06:46:06;;;;;;;7.72;2.00;;;23.90;99.90;;;;;;4896739;29;20049;-80
2023/07/15 06:48:33;;;;;;;5.38;2.00;;;24.00;99.90;;;;;;4899680;29;20049;-81
2023/07/15 06:50:59;;;;;;;2.20;1.88;;;24.20;99.90;;;;;;4904653;29;20052;-81
2023/07/15 06:53:27;;;;;;;4.53;2.35;;;24.30;99.90;;;;;;4905779;29;20053;-80
2023/07/15 06:55:54;;;;;;;4.10;2.20;;;24.40;99.90;;;;;;4895363;29;20049;-81
2023/07/15 06:58:39;;;;;;;3.83;2.13;;;24.60;99.90;;;;;;4902256;29;20529;-80
2023/07/15 07:01:10;;;;;;;8.18;2.05;;;24.70;99.90;;;;;;4897026;29;20052;-80
2023/07/15 07:03:37;;;;;;;3.25;1.92;;;24.80;99.90;;;;;;4898089;29;20056;-80
2023/07/15 07:06:04;;;;;;;4.60;1.90;;;24.90;99.90;;;;;;4904785;29;20085;-80
2023/07/15 07:08:31;;;;;;;5.75;1.85;;;24.90;99.90;;;;;;4905695;29;20045;-80
2023/07/15 07:10:58;;;;;;;6.47;1.70;;;25.00;99.90;;;;;;4902311;29;20077;-80
2023/07/15 07:13:24;;;;;;;7.25;2.22;;;25.00;99.90;;;;;;4913538;29;20052;-80
2023/07/15 07:15:51;;;;;;;4.50;2.00;;;25.00;99.90;;;;;;4901985;29;20049;-80
2023/07/15 07:18:18;;;;;;;4.40;1.98;;;25.00;99.90;;;;;;4899303;29;20488;-80
2023/07/15 07:20:45;;;;;;;3.15;2.00;;;25.00;99.90;;;;;;4899173;29;20139;-80
2023/07/15 07:23:12;;;;;;;3.17;1.92;;;25.00;99.90;;;;;;4898127;29;20045;-79
2023/07/15 07:25:41;;;;;;;3.33;2.00;;;25.00;99.90;;;;;;4905296;29;20068;-80
2023/07/15 07:28:08;;;;;;;3.53;2.35;;;25.10;99.90;;;;;;4916880;29;20053;-80
2023/07/15 07:30:35;;;;;;;4.60;2.28;;;25.00;99.90;;;;;;4920492;29;20077;-80
2023/07/15 07:33:02;;;;;;;3.90;2.25;;;25.10;99.90;;;;;;4904762;29;20052;-80
2023/07/15 07:35:28;;;;;;;7.18;2.08;;;25.10;99.90;;;;;;4901987;29;20131;-80
2023/07/15 07:37:55;;;;;;;7.65;2.22;;;25.10;99.90;;;;;;4907315;29;20052;-80
2023/07/15 07:40:22;;;;;;;5.22;2.53;;;25.10;99.90;;;;;;4906560;29;20071;-80
2023/07/15 07:42:49;;;;;;;5.97;2.40;;;25.20;99.90;;;;;;4899879;29;20088;-80
2023/07/15 07:45:17;;;;;;;4.20;2.17;;;25.20;99.90;;;;;;4901738;29;20052;-80
2023/07/15 07:47:44;;;;;;;4.20;2.10;;;25.40;99.90;;;;;;4900729;29;20500;-80
2023/07/15 07:50:10;;;;;;;4.70;1.95;;;25.50;99.90;;;;;;4899502;29;20049;-80
2023/07/15 07:52:37;;;;;;;3.60;2.13;;;25.60;99.90;;;;;;4901097;29;20073;-80
2023/07/15 07:55:05;;;;;;;3.13;1.90;;;25.70;99.90;;;;;;4899091;29;20063;-80
2023/07/15 07:57:31;;;;;;;2.80;2.10;;;25.90;99.90;;;;;;4897437;29;20085;-80
2023/07/15 07:59:58;;;;;;;8.98;2.05;;;25.90;99.90;;;;;;4902949;29;20071;-80
2023/07/15 08:02:25;;;;;;;5.75;2.40;;;26.00;99.90;;;;;;4903252;29;20044;-79
2023/07/15 08:04:52;;;;;;;3.38;1.90;;;26.00;99.90;;;;;;4897285;29;20094;-80
2023/07/15 08:07:19;;;;;;;3.70;2.00;;;26.10;99.90;;;;;;4899661;29;20108;-80
2023/07/15 08:09:45;;;;;;;6.03;2.38;;;26.10;99.90;;;;;;4899112;29;20057;-80
2023/07/15 08:12:12;;;;;;;2.42;1.90;;;26.20;99.90;;;;;;4926033;23;20560;-77
2023/07/15 08:14:39;;;;;;;5.53;3.33;;;26.30;99.90;;;;;;4910162;29;20048;-78
2023/07/15 08:17:06;;;;;;;4.03;1.88;;;26.40;99.90;;;;;;4913993;29;20060;-77
2023/07/15 08:19:32;;;;;;;8.43;2.30;;;26.50;99.90;;;;;;4910959;29;20612;-79
2023/07/15 08:21:59;;;;;;;4.95;1.92;;;26.50;99.90;;;;;;4913975;29;20057;-78
2023/07/15 08:24:26;;;;;;;5.15;1.83;;;26.60;99.90;;;;;;4923625;29;20406;-78
2023/07/15 08:26:53;;;;;;;5.80;2.28;;;26.70;99.90;;;;;;4907408;29;20092;-79
2023/07/15 08:29:20;;;;;;;4.47;2.20;;;26.80;99.90;;;;;;4909383;29;20088;-79
2023/07/15 08:31:47;;;;;;;3.88;1.92;;;26.90;99.90;;;;;;4909725;29;20044;-78
2023/07/15 08:34:13;;;;;;;7.20;2.13;;;27.00;99.90;;;;;;4912369;29;20516;-79
2023/07/15 08:36:40;;;;;;;6.10;1.83;;;27.20;99.90;;;;;;4909485;29;20098;-78
2023/07/15 08:39:07;;;;;;;5.85;2.10;;;27.40;99.90;;;;;;4908897;29;20120;-78
2023/07/15 08:41:34;;;;;;;4.65;2.25;;;27.60;99.90;;;;;;4903280;29;20052;-79
2023/07/15 08:44:01;;;;;;;5.38;2.00;;;27.80;99.90;;;;;;4909139;29;20084;-79
2023/07/15 08:46:30;;;;;;;3.67;2.40;;;27.80;99.90;;;;;;4913499;29;20431;-79
2023/07/15 08:48:59;;;;;;;6.38;1.95;;;28.00;99.90;;;;;;4913101;29;20458;-78
2023/07/15 08:51:33;;;;;;;4.93;2.05;;;28.10;99.90;;;;;;4909799;29;20044;-78
2023/07/15 08:54:05;;;;;;;3.03;2.45;;;28.20;99.90;;;;;;4910513;29;20112;-78
2023/07/15 08:56:36;;;;;;;2.25;1.70;;;28.30;99.90;;;;;;4909638;29;20051;-78
2023/07/15 08:59:06;;;;;;;3.13;1.75;;;28.40;99.90;;;;;;4928593;29;20063;-78
2023/07/15 09:01:37;;;;;;;3.42;1.80;;;28.60;99.90;;;;;;4913868;29;20654;-78
2023/07/15 09:04:04;;;;;;;3.83;2.38;;;28.70;99.90;;;;;;4910307;29;20061;-78
2023/07/15 09:06:32;;;;;;;6.82;1.88;;;28.70;99.90;;;;;;4911374;29;20504;-79
2023/07/15 09:08:59;;;;;;;7.35;2.08;;;28.70;99.90;;;;;;4909970;29;20063;-78
2023/07/15 09:11:41;;;;;;;6.97;1.88;;;28.70;99.90;;;;;;4912516;29;20052;-78
2023/07/15 09:14:17;;;;;;;7.70;2.10;;;28.60;99.90;;;;;;4910383;29;20052;-78
2023/07/15 09:16:44;;;;;;;4.22;2.20;;;28.70;99.90;;;;;;4907235;29;20048;-78
2023/07/15 09:19:11;;;;;;;6.65;2.53;;;28.60;99.90;;;;;;4910803;29;20139;-78
2023/07/15 09:21:43;;;;;;;5.82;2.20;;;28.60;99.90;;;;;;4908061;29;20058;-77
2023/07/15 09:24:09;;;;;;;3.50;2.00;;;28.70;99.90;;;;;;4907115;29;20106;-78
2023/07/15 09:26:36;;;;;;;10.20;2.30;;;28.70;99.90;;;;;;4905360;29;20460;-78
2023/07/15 09:29:04;;;;;;;2.58;1.88;;;28.70;99.90;;;;;;4911347;29;20107;-79
2023/07/15 09:31:30;;;;;;;2.13;1.70;;;28.80;99.90;;;;;;4914216;29;20040;-79
2023/07/15 09:34:03;;;;;;;2.25;1.90;;;28.90;99.90;;;;;;4906308;29;20052;-79
2023/07/15 09:36:31;;;;;;;5.15;2.00;;;29.00;99.90;;;;;;4905938;29;20565;-79
2023/07/15 09:39:12;;;;;;;2.83;1.67;;;29.00;99.90;;;;;;4921191;29;20060;-79
2023/07/15 09:41:40;;;;;;;3.10;1.95;;;29.10;99.90;;;;;;4909588;29;20085;-77
2023/07/15 09:44:08;;;;;;;4.00;1.73;;;29.10;99.90;;;;;;4910927;29;20052;-78
2023/07/15 09:46:34;;;;;;;6.75;1.70;;;29.00;99.90;;;;;;4910876;29;20131;-79
2023/07/15 09:49:01;;;;;;;3.30;1.52;;;29.00;99.90;;;;;;4905235;29;20131;-79
2023/07/15 09:51:30;;;;;;;5.82;1.92;;;28.90;99.90;;;;;;4915390;29;20131;-78
2023/07/15 09:53:59;;;;;;;9.25;3.08;;;28.80;99.90;;;;;;4908144;29;20056;-79
2023/07/15 09:56:40;;;;;;;4.63;1.75;;;28.80;99.90;;;;;;4904841;29;20473;-78
2023/07/15 09:59:15;;;;;;;4.80;1.88;;;28.80;99.90;;;;;;4911032;29;20064;-78
2023/07/15 10:01:50;;;;;;;6.88;1.85;;;28.90;99.90;;;;;;4909517;29;20873;-78
2023/07/15 10:04:22;;;;;;;6.15;2.20;;;29.00;99.90;;;;;;4904763;29;20139;-79
2023/07/15 10:06:51;;;;;;;3.58;2.20;;;29.00;99.90;;;;;;4908699;29;20112;-79
2023/07/15 10:09:19;;;;;;;5.73;2.50;;;29.10;99.90;;;;;;4913502;29;20414;-77
2023/07/15 10:11:48;;;;;;;5.95;2.40;;;29.20;99.90;;;;;;4921518;29;20124;-79
2023/07/15 10:14:15;;;;;;;5.22;2.67;;;29.20;99.90;;;;;;4917502;29;20464;-81
2023/07/15 10:16:43;;;;;;;6.35;2.85;;;29.30;99.90;;;;;;4917783;29;20460;-79
2023/07/15 10:19:52;;;;;;;9.52;3.42;;;29.30;99.90;;;;;;4911709;29;20117;-80
2023/07/15 10:22:21;;;;;;;5.35;2.90;;;29.30;99.90;;;;;;4872405;29;20551;-80
2023/07/15 10:24:56;;;;;;;7.20;2.50;;;29.30;99.90;;;;;;4866755;29;20049;-81
2023/07/15 10:27:30;;;;;;;6.03;2.75;;;29.20;99.90;;;;;;4895974;29;20082;-80
2023/07/15 10:30:23;;;;;;;10.55;2.97;;;29.20;99.90;;;;;;4912906;29;20049;-80
2023/07/15 10:33:00;;;;;;;5.00;2.75;;;29.00;99.90;;;;;;4926886;29;20048;-80
2023/07/15 10:35:29;;;;;;;6.15;2.75;;;28.90;99.90;;;;;;4926768;29;20516;-80
2023/07/15 10:38:00;;;;;;;5.30;3.60;;;28.90;99.90;;;;;;4912266;29;20535;-80
2023/07/15 10:40:49;;;;;;;5.93;2.70;;;28.80;99.90;;;;;;4914060;29;20341;-80
2023/07/15 10:43:23;;;;;;;7.45;3.17;;;28.70;99.90;;;;;;4914138;29;20059;-81
2023/07/15 10:45:54;;;;;;;5.38;2.92;;;28.60;99.90;;;;;;4913847;29;20114;-79
2023/07/15 10:48:22;;;;;;;4.93;2.60;;;28.60;99.90;;;;;;4927068;29;20040;-80
2023/07/15 10:50:53;;;;;;;3.40;2.33;;;28.50;99.90;;;;;;4922769;29;20056;-81
2023/07/15 10:53:26;;;;;;;4.03;2.40;;;28.50;99.90;;;;;;4916940;29;20107;-81
2023/07/15 10:56:00;;;;;;;8.75;2.92;;;28.40;99.90;;;;;;4917816;29;20091;-80
2023/07/15 10:58:28;;;;;;;8.80;2.70;;;28.40;99.90;;;;;;4913398;29;20060;-80
2023/07/15 11:01:09;;;;;;;8.20;2.50;;;28.40;99.90;;;;;;4914399;29;20100;-81
2023/07/15 11:03:43;;;;;;;4.70;2.63;;;28.40;99.90;;;;;;4913188;29;20489;-80
2023/07/15 11:06:11;;;;;;;6.80;2.67;;;28.30;99.90;;;;;;4915962;29;20052;-80
2023/07/15 11:08:39;;;;;;;7.78;2.78;;;28.30;99.90;;;;;;4927937;29;20043;-81
2023/07/15 11:11:10;;;;;;;5.90;2.75;;;28.30;99.90;;;;;;4926813;29;20052;-81
2023/07/15 11:13:38;;;;;;;9.05;2.70;;;28.30;99.90;;;;;;4914252;29;20044;-80
2023/07/15 11:16:05;;;;;;;6.07;2.58;;;28.30;99.90;;;;;;4927435;29;20115;-81
2023/07/15 11:18:32;;;;;;;6.38;2.60;;;28.30;99.90;;;;;;4912651;29;20056;-80
2023/07/15 11:21:00;;;;;;;8.68;2.90;;;28.30;99.90;;;;;;4908896;29;20083;-79
2023/07/15 11:23:28;;;;;;;6.72;2.38;;;28.30;99.90;;;;;;4912514;29;20056;-81
2023/07/15 11:25:57;;;;;;;6.30;2.65;;;28.30;99.90;;;;;;4918722;29;20135;-81
2023/07/15 11:28:24;;;;;;;8.85;2.75;;;28.40;99.90;;;;;;4930329;29;20044;-80
2023/07/15 11:30:51;;;;;;;6.38;2.50;;;28.40;99.90;;;;;;4913509;29;20104;-80
2023/07/15 11:33:18;;;;;;;4.25;2.28;;;28.40;99.90;;;;;;4919000;29;20103;-80
2023/07/15 11:35:45;;;;;;;9.90;3.30;;;28.40;99.90;;;;;;4916967;29;20052;-80
2023/07/15 11:38:13;;;;;;;6.93;2.40;;;28.40;99.90;;;;;;4918855;29;20131;-81
2023/07/15 11:40:56;;;;;;;5.25;2.20;;;28.40;99.90;;;;;;4915342;29;20586;-80
2023/07/15 11:43:25;;;;;;;4.30;2.58;;;28.40;99.90;;;;;;4907276;29;20103;-81
2023/07/15 11:46:00;;;;;;;9.88;2.50;;;28.40;99.90;;;;;;4914480;29;20044;-80
2023/07/15 11:48:30;;;;;;;7.07;2.60;;;28.40;99.90;;;;;;4912128;29;20044;-81
2023/07/15 11:51:07;;;;;;;6.43;2.40;;;28.40;99.90;;;;;;4900568;29;20108;-79
2023/07/15 11:53:35;;;;;;;3.90;2.47;;;28.40;99.90;;;;;;4910263;29;20473;-77
2023/07/15 11:56:03;;;;;;;5.43;2.47;;;28.40;99.90;;;;;;4906538;29;20126;-77
2023/07/15 11:58:37;;;;;;;4.07;2.50;;;28.50;99.90;;;;;;4910304;29;20057;-78
2023/07/15 12:01:15;;;;;;;5.78;2.70;;;28.50;99.90;;;;;;4906808;29;20056;-78
2023/07/15 12:03:48;;;;;;;4.20;2.42;;;28.60;99.90;;;;;;4925139;29;20103;-78
2023/07/15 12:06:20;;;;;;;6.18;3.38;;;28.60;99.90;;;;;;4908473;29;20079;-78
2023/07/15 12:09:09;;;;;;;5.63;2.60;;;28.60;99.90;;;;;;4907264;29;20532;-78
2023/07/15 12:11:37;;;;;;;6.63;2.60;;;28.70;99.90;;;;;;4909665;29;20468;-78
2023/07/15 12:14:05;;;;;;;6.15;2.88;;;28.70;99.90;;;;;;4906189;29;20084;-78
2023/07/15 12:16:34;;;;;;;5.88;2.45;;;28.70;99.90;;;;;;4909481;29;20048;-78
2023/07/15 12:19:02;;;;;;;6.22;2.80;;;28.80;99.90;;;;;;4908549;29;20623;-77
2023/07/15 12:21:29;;;;;;;9.02;2.47;;;28.80;99.90;;;;;;4903910;29;20077;-79
2023/07/15 12:23:57;;;;;;;5.18;2.35;;;28.90;99.90;;;;;;4907717;29;20135;-77
2023/07/15 12:26:24;;;;;;;6.35;2.17;;;28.90;99.90;;;;;;4906668;29;20100;-78
2023/07/15 12:28:51;;;;;;;6.13;2.00;;;28.90;99.90;;;;;;4910392;29;20132;-78
2023/07/15 12:31:18;;;;;;;6.47;2.10;;;28.90;99.90;;;;;;4907010;29;20048;-78
2023/07/15 12:33:45;;;;;;;7.00;2.50;;;29.00;99.90;;;;;;4905442;29;20049;-78
2023/07/15 12:36:15;;;;;;;3.65;2.17;;;29.00;99.90;;;;;;4910082;29;20112;-78
2023/07/15 12:38:43;;;;;;;7.53;2.50;;;29.00;99.90;;;;;;4907276;29;20048;-78
2023/07/15 12:41:11;;;;;;;4.65;2.20;;;29.00;99.90;;;;;;4908796;29;20052;-78
2023/07/15 12:43:38;;;;;;;3.28;2.70;;;29.10;99.90;;;;;;4909296;29;20075;-78
2023/07/15 12:46:05;;;;;;;6.00;2.38;;;29.10;99.90;;;;;;4906499;29;20045;-78
2023/07/15 12:48:33;;;;;;;5.32;2.25;;;29.10;99.90;;;;;;4907735;29;20428;-78
2023/07/15 12:51:00;;;;;;;5.40;2.50;;;29.20;99.90;;;;;;4909016;29;20445;-78
2023/07/15 12:53:26;;;;;;;6.53;3.15;;;29.20;99.90;;;;;;4905615;29;20083;-78
2023/07/15 12:55:54;;;;;;;9.15;4.03;;;29.30;99.90;;;;;;4908341;29;20059;-78